createdAt,value
2018-12-11T00:02:48.831Z,14.40
2018-12-11T00:05:52.989Z,12.33
2018-12-11T00:08:56.994Z,8.93
2018-12-11T00:12:01.018Z,8.17
2018-12-11T00:15:05.713Z,12.10
2018-12-11T00:18:09.733Z,16.80
2018-12-11T00:21:13.749Z,8.83
2018-12-11T00:24:17.772Z,8.63
2018-12-11T00:27:21.778Z,7.60
2018-12-11T00:30:25.794Z,9.60
2018-12-11T00:33:29.806Z,5.20
2018-12-11T00:36:33.813Z,8.33
2018-12-11T00:39:37.834Z,7.70
2018-12-11T00:42:41.930Z,10.53
2018-12-11T00:45:45.938Z,6.63
2018-12-11T00:48:49.959Z,6.10
2018-12-11T00:51:53.958Z,8.03
2018-12-11T00:54:57.987Z,8.27
2018-12-11T00:58:02.782Z,9.83
2018-12-11T01:01:06.905Z,6.80
2018-12-11T01:04:11.089Z,12.20
2018-12-11T01:07:15.098Z,9.20
2018-12-11T01:10:19.206Z,8.73
2018-12-11T01:13:23.231Z,7.77
2018-12-11T01:16:27.251Z,6.00
2018-12-11T01:19:31.255Z,9.60
2018-12-11T01:22:35.286Z,10.47
2018-12-11T01:25:39.306Z,10.43
2018-12-11T01:28:43.339Z,5.67
2018-12-11T01:31:47.343Z,6.63
2018-12-11T01:34:51.373Z,8.13
2018-12-11T01:37:55.402Z,7.00
2018-12-11T01:40:59.761Z,8.73
2018-12-11T01:44:03.968Z,5.83
2018-12-11T01:47:07.969Z,8.77
2018-12-11T01:50:12.174Z,7.17
2018-12-11T01:53:16.295Z,7.83
2018-12-11T01:56:20.390Z,7.07
2018-12-11T01:59:24.428Z,8.77
2018-12-11T02:02:28.449Z,7.03
2018-12-11T02:05:32.470Z,10.47
2018-12-11T02:08:36.495Z,8.63
2018-12-11T02:11:40.511Z,6.63
2018-12-11T02:14:44.535Z,5.43
2018-12-11T02:17:48.581Z,8.00
2018-12-11T02:20:52.594Z,8.23
2018-12-11T02:23:56.622Z,7.60
2018-12-11T02:27:00.631Z,8.13
2018-12-11T02:30:05.288Z,9.60
2018-12-11T02:33:09.322Z,12.13
2018-12-11T02:36:13.425Z,6.50
2018-12-11T02:39:17.440Z,11.33
2018-12-11T02:42:21.443Z,8.17
2018-12-11T02:45:25.464Z,12.13
2018-12-11T02:48:29.503Z,9.40
2018-12-11T02:51:33.510Z,7.90
2018-12-11T02:54:37.542Z,6.30
2018-12-11T02:57:41.559Z,8.83
2018-12-11T03:00:45.601Z,7.67
2018-12-11T03:03:49.622Z,14.90
2018-12-11T03:06:53.634Z,7.77
2018-12-11T03:09:57.674Z,10.23
2018-12-11T03:13:01.762Z,7.50
2018-12-11T03:16:05.864Z,5.27
2018-12-11T03:19:09.888Z,6.67
2018-12-11T03:22:13.892Z,7.40
2018-12-11T03:25:17.920Z,12.90
2018-12-11T03:28:21.917Z,5.60
2018-12-11T03:31:26.536Z,7.47
2018-12-11T03:34:30.646Z,12.70
2018-12-11T03:37:34.759Z,8.33
2018-12-11T03:40:38.853Z,5.57
2018-12-11T03:43:42.865Z,8.40
2018-12-11T03:46:46.898Z,13.00
2018-12-11T03:49:50.911Z,9.70
2018-12-11T03:52:54.935Z,9.80
2018-12-11T03:55:58.951Z,10.03
2018-12-11T03:59:03.062Z,6.40
2018-12-11T04:02:07.173Z,12.77
2018-12-11T04:05:11.184Z,13.73
2018-12-11T04:08:15.200Z,6.70
2018-12-11T04:11:19.222Z,6.73
2018-12-11T04:14:23.539Z,6.40
2018-12-11T04:17:27.651Z,6.93
2018-12-11T04:20:31.685Z,5.10
2018-12-11T04:23:35.694Z,12.33
2018-12-11T04:26:39.712Z,8.90
2018-12-11T04:29:43.794Z,6.80
2018-12-11T04:32:47.871Z,3.47
2018-12-11T04:35:51.922Z,7.50
2018-12-11T04:38:55.985Z,9.23
2018-12-11T04:41:59.996Z,8.00
2018-12-11T04:45:04.585Z,9.00
2018-12-11T04:48:08.579Z,6.60
2018-12-11T04:51:12.599Z,6.73
2018-12-11T04:54:16.610Z,10.13
2018-12-11T04:57:20.719Z,9.13
2018-12-11T05:00:24.843Z,4.33
2018-12-11T05:03:28.927Z,7.10
2018-12-11T05:06:33.600Z,6.93
2018-12-11T05:09:37.671Z,6.60
2018-12-11T05:12:41.699Z,5.73
2018-12-11T05:15:45.732Z,7.47
2018-12-11T05:18:49.750Z,9.77
2018-12-11T05:21:53.782Z,8.40
2018-12-11T05:24:57.802Z,3.97
2018-12-11T05:28:01.821Z,7.13
2018-12-11T05:31:05.931Z,6.63
2018-12-11T05:34:09.943Z,4.57
2018-12-11T05:37:14.181Z,11.50
2018-12-11T05:40:18.198Z,6.90
2018-12-11T05:43:22.214Z,6.13
2018-12-11T05:46:26.243Z,9.03
2018-12-11T05:49:30.265Z,7.50
2018-12-11T05:52:34.281Z,10.10
2018-12-11T05:55:38.290Z,3.30
2018-12-11T05:58:42.314Z,7.53
2018-12-11T06:01:46.350Z,9.90
2018-12-11T06:04:50.381Z,5.97
2018-12-11T06:07:54.397Z,4.07
2018-12-11T06:10:58.478Z,7.47
2018-12-11T06:14:02.523Z,4.43
2018-12-11T06:17:06.550Z,4.30
2018-12-11T06:20:10.558Z,6.40
2018-12-11T06:23:14.655Z,17.97
2018-12-11T06:26:18.812Z,6.60
2018-12-11T06:29:22.815Z,7.03
2018-12-11T06:32:26.843Z,10.27
2018-12-11T06:35:30.867Z,5.53
2018-12-11T06:38:34.883Z,15.60
2018-12-11T06:41:39.051Z,15.70
2018-12-11T06:44:43.055Z,7.63
2018-12-11T06:47:47.095Z,5.10
2018-12-11T06:50:51.100Z,9.50
2018-12-11T06:53:55.122Z,8.47
2018-12-11T06:56:59.162Z,9.50
2018-12-11T07:00:03.466Z,8.03
2018-12-11T07:03:07.483Z,9.43
2018-12-11T07:06:11.506Z,12.53
2018-12-11T07:09:15.623Z,8.20
2018-12-11T07:12:19.755Z,8.80
2018-12-11T07:15:23.779Z,8.23
2018-12-11T07:18:27.807Z,12.20
2018-12-11T07:21:31.962Z,11.40
2018-12-11T07:24:35.983Z,10.17
2018-12-11T07:27:40.016Z,10.33
2018-12-11T07:30:44.022Z,8.60
2018-12-11T07:33:50.903Z,10.60
2018-12-11T07:36:54.046Z,14.77
2018-12-11T07:39:58.064Z,5.33
2018-12-11T07:43:02.083Z,5.97
2018-12-11T07:46:07.309Z,7.33
2018-12-11T07:49:11.518Z,8.67
2018-12-11T07:52:15.594Z,6.47
2018-12-11T07:55:19.626Z,5.43
2018-12-11T07:58:23.644Z,7.60
2018-12-11T08:01:27.653Z,11.83
2018-12-11T08:04:31.671Z,8.50
2018-12-11T08:07:35.687Z,4.90
2018-12-11T08:10:39.691Z,7.30
2018-12-11T08:13:43.731Z,6.53
2018-12-11T08:16:47.739Z,7.67
2018-12-11T08:19:51.756Z,10.40
2018-12-11T08:22:55.796Z,9.30
2018-12-11T08:25:59.811Z,8.93
2018-12-11T08:29:04.704Z,14.20
2018-12-11T08:32:08.733Z,12.33
2018-12-11T08:35:12.854Z,5.40
2018-12-11T08:38:16.879Z,8.20
2018-12-11T08:41:20.987Z,7.50
2018-12-11T08:44:25.008Z,8.40
2018-12-11T08:47:29.031Z,26.97
2018-12-11T08:50:33.063Z,18.67
2018-12-11T08:53:37.086Z,14.67
2018-12-11T08:56:41.115Z,11.07
2018-12-11T08:59:45.150Z,10.17
2018-12-11T09:02:49.164Z,9.10
2018-12-11T09:05:53.192Z,9.20
2018-12-11T09:08:57.219Z,11.60
2018-12-11T09:12:01.252Z,9.27
2018-12-11T09:15:05.919Z,6.10
2018-12-11T09:18:09.934Z,7.67
2018-12-11T09:21:13.995Z,5.37
2018-12-11T09:24:18.021Z,5.07
2018-12-11T09:27:22.037Z,9.20
2018-12-11T09:30:26.151Z,7.57
2018-12-11T09:33:30.170Z,5.40
2018-12-11T09:36:34.194Z,6.10
2018-12-11T09:39:38.215Z,10.30
2018-12-11T09:42:42.230Z,9.20
2018-12-11T09:45:46.359Z,14.00
2018-12-11T09:48:50.364Z,15.80
2018-12-11T09:51:54.391Z,9.30
2018-12-11T09:54:58.398Z,8.93
2018-12-11T09:58:02.415Z,6.83
2018-12-11T10:01:06.457Z,10.40
2018-12-11T10:04:10.463Z,8.90
2018-12-11T10:07:14.585Z,6.83
2018-12-11T10:10:18.685Z,7.90
2018-12-11T10:13:22.730Z,12.93
2018-12-11T10:16:26.753Z,18.00
2018-12-11T10:19:30.768Z,13.27
2018-12-11T10:22:34.885Z,6.90
2018-12-11T10:25:38.899Z,5.07
2018-12-11T10:28:42.998Z,5.57
2018-12-11T10:31:47.039Z,7.50
2018-12-11T10:34:51.052Z,5.30
2018-12-11T10:37:55.094Z,5.30
2018-12-11T10:40:59.102Z,7.50
2018-12-11T10:44:03.214Z,9.20
2018-12-11T10:47:07.256Z,6.43
2018-12-11T10:50:11.265Z,8.07
2018-12-11T10:53:15.280Z,5.23
2018-12-11T10:56:19.378Z,6.90
2018-12-11T10:59:23.416Z,4.40
2018-12-11T11:02:27.787Z,6.83
2018-12-11T11:05:31.795Z,7.53
2018-12-11T11:08:35.813Z,5.83
2018-12-11T11:11:39.838Z,7.30
2018-12-11T11:14:43.904Z,5.43
2018-12-11T11:17:47.917Z,7.70
2018-12-11T11:20:52.023Z,7.00
2018-12-11T11:23:56.030Z,11.93
2018-12-11T11:27:00.046Z,14.77
2018-12-11T11:30:04.908Z,13.53
2018-12-11T11:33:08.932Z,13.20
2018-12-11T11:36:13.067Z,19.43
2018-12-11T11:39:17.074Z,10.60
2018-12-11T11:42:21.286Z,4.03
2018-12-11T11:45:25.290Z,9.30
2018-12-11T11:48:29.318Z,12.30
2018-12-11T11:51:33.349Z,14.20
2018-12-11T11:54:37.378Z,8.00
2018-12-11T11:57:41.389Z,8.37
2018-12-11T12:00:45.514Z,12.37
2018-12-11T12:03:49.540Z,11.90
2018-12-11T12:06:53.567Z,11.00
2018-12-11T12:09:57.598Z,8.40
2018-12-11T12:13:01.614Z,7.03
2018-12-11T12:16:05.662Z,6.17
2018-12-11T12:19:09.692Z,8.90
2018-12-11T12:22:13.707Z,7.60
2018-12-11T12:25:17.728Z,5.93
2018-12-11T12:28:21.742Z,6.53
2018-12-11T12:31:26.151Z,5.13
2018-12-11T12:34:30.158Z,5.97
2018-12-11T12:37:34.182Z,4.00
2018-12-11T12:40:38.322Z,6.40
2018-12-11T12:43:42.330Z,7.00
2018-12-11T12:46:46.347Z,6.90
2018-12-11T12:49:50.872Z,6.33
2018-12-11T12:52:55.059Z,6.40
2018-12-11T12:55:59.074Z,5.40
2018-12-11T12:59:03.089Z,5.83
2018-12-11T13:02:07.105Z,5.53
2018-12-11T13:05:11.363Z,8.00
2018-12-11T13:08:15.375Z,9.07
2018-12-11T13:11:19.386Z,5.80
2018-12-11T13:14:23.412Z,5.57
2018-12-11T13:17:27.427Z,8.20
2018-12-11T13:20:31.440Z,6.70
2018-12-11T13:23:35.441Z,5.47
2018-12-11T13:26:39.508Z,5.23
2018-12-11T13:29:43.549Z,5.37
2018-12-11T13:32:47.583Z,5.40
2018-12-11T13:35:51.595Z,13.67
2018-12-11T13:38:55.618Z,7.03
2018-12-11T13:41:59.627Z,6.40
2018-12-11T13:45:03.844Z,6.47
2018-12-11T13:48:07.933Z,4.90
2018-12-11T13:51:11.951Z,7.70
2018-12-11T13:54:16.295Z,7.60
2018-12-11T13:57:20.306Z,9.00
2018-12-11T14:00:24.323Z,5.60
2018-12-11T14:03:28.856Z,6.33
2018-12-11T14:06:32.866Z,6.23
2018-12-11T14:09:41.161Z,5.70
2018-12-11T14:12:45.187Z,5.83
2018-12-11T14:15:49.194Z,7.83
2018-12-11T14:18:53.379Z,7.57
2018-12-11T14:21:57.378Z,7.33
2018-12-11T14:25:01.697Z,6.87
2018-12-11T14:28:05.748Z,4.67
2018-12-11T14:31:10.049Z,5.53
2018-12-11T14:34:14.057Z,4.77
2018-12-11T14:37:18.158Z,5.63
2018-12-11T14:40:22.269Z,9.90
2018-12-11T14:43:26.376Z,6.10
2018-12-11T14:46:30.482Z,6.63
2018-12-11T14:49:34.501Z,5.87
2018-12-11T14:52:38.575Z,5.63
2018-12-11T14:55:42.651Z,5.77
2018-12-11T14:58:46.661Z,5.17
2018-12-11T15:01:50.682Z,5.77
2018-12-11T15:04:54.695Z,8.10
2018-12-11T15:07:59.402Z,5.90
2018-12-11T15:11:03.510Z,6.43
2018-12-11T15:14:07.533Z,7.00
2018-12-11T15:17:11.577Z,8.87
2018-12-11T15:20:15.675Z,7.00
2018-12-11T15:23:19.674Z,6.53
2018-12-11T15:26:23.702Z,5.27
2018-12-11T15:29:27.704Z,10.33
2018-12-11T15:32:31.726Z,6.37
2018-12-11T15:35:35.746Z,7.23
2018-12-11T15:38:39.748Z,11.83
2018-12-11T15:41:43.859Z,12.90
2018-12-11T15:44:47.877Z,12.87
2018-12-11T15:47:52.003Z,10.93
2018-12-11T15:50:56.028Z,8.30
2018-12-11T15:54:00.047Z,9.93
2018-12-11T15:57:04.534Z,7.20
2018-12-11T16:00:10.658Z,7.40
2018-12-11T16:03:14.671Z,15.40
2018-12-11T16:06:18.699Z,9.53
2018-12-11T16:09:26.962Z,12.80
2018-12-11T16:12:33.131Z,22.07
2018-12-11T16:15:37.492Z,19.33
2018-12-11T16:18:41.834Z,9.93
2018-12-11T16:21:45.850Z,13.83
2018-12-11T16:24:50.385Z,12.03
2018-12-11T16:27:54.403Z,9.93
2018-12-11T16:30:58.726Z,6.93
2018-12-11T16:34:03.286Z,9.47
2018-12-11T16:37:07.420Z,8.67
2018-12-11T16:40:12.632Z,8.63
2018-12-11T16:43:17.972Z,6.57
2018-12-11T16:46:22.509Z,6.17
2018-12-11T16:49:26.904Z,8.37
2018-12-11T16:52:32.609Z,7.03
2018-12-11T16:55:36.747Z,13.07
2018-12-11T16:58:41.075Z,7.20
2018-12-11T17:01:45.472Z,9.47
2018-12-11T17:04:49.635Z,6.87
2018-12-11T17:07:53.733Z,9.47
2018-12-11T17:10:58.696Z,10.87
2018-12-11T17:14:02.807Z,9.03
2018-12-11T17:17:07.415Z,7.83
2018-12-11T17:20:11.687Z,10.77
2018-12-11T17:23:15.724Z,8.90
2018-12-11T17:26:20.146Z,11.00
2018-12-11T17:29:24.627Z,9.30
2018-12-11T17:32:29.147Z,7.57
2018-12-11T17:35:34.321Z,9.73
2018-12-11T17:38:38.431Z,7.40
2018-12-11T17:41:42.734Z,10.10
2018-12-11T17:44:47.219Z,7.70
2018-12-11T17:47:51.759Z,8.83
2018-12-11T17:50:56.290Z,11.40
2018-12-11T17:54:00.403Z,10.30
2018-12-11T17:57:04.513Z,12.80
2018-12-11T18:00:09.651Z,11.47
2018-12-11T18:03:13.694Z,9.40
2018-12-11T18:06:17.828Z,7.07
2018-12-11T18:09:21.874Z,7.87
2018-12-11T18:12:25.974Z,7.97
2018-12-11T18:15:36.649Z,8.43
2018-12-11T18:18:40.760Z,8.00
2018-12-11T18:21:44.874Z,9.40
2018-12-11T18:24:48.905Z,12.73
2018-12-11T18:27:52.942Z,8.30
2018-12-11T18:30:59.096Z,11.13
2018-12-11T18:34:10.732Z,10.83
2018-12-11T18:37:09.970Z,9.90
2018-12-11T18:40:14.146Z,10.50
2018-12-11T18:43:18.523Z,9.00
2018-12-11T18:46:22.542Z,12.13
2018-12-11T18:49:26.558Z,9.07
2018-12-11T18:52:31.512Z,13.30
2018-12-11T18:55:35.894Z,12.30
2018-12-11T18:58:39.927Z,17.23
2018-12-11T19:01:44.031Z,12.93
2018-12-11T19:04:48.052Z,14.60
2018-12-11T19:07:52.756Z,9.57
2018-12-11T19:10:57.383Z,14.70
2018-12-11T19:14:03.442Z,13.50
2018-12-11T19:17:08.056Z,11.33
2018-12-11T19:20:12.162Z,15.13
2018-12-11T19:23:31.042Z,11.30
2018-12-11T19:26:35.118Z,15.07
2018-12-11T19:29:39.142Z,8.63
2018-12-11T19:32:43.166Z,14.53
2018-12-11T19:35:47.435Z,12.37
2018-12-11T19:38:54.202Z,14.80
2018-12-11T19:41:58.323Z,12.20
2018-12-11T19:45:02.342Z,11.60
2018-12-11T19:48:06.589Z,11.83
2018-12-11T19:51:11.207Z,14.87
2018-12-11T19:54:15.827Z,13.77
2018-12-11T19:57:19.953Z,10.33
2018-12-11T20:00:24.078Z,10.90
2018-12-11T20:03:28.420Z,15.43
2018-12-11T20:06:32.464Z,11.10
2018-12-11T20:09:38.486Z,11.40
2018-12-11T20:12:42.619Z,12.10
2018-12-11T20:15:46.638Z,11.10
2018-12-11T20:18:50.951Z,17.50
2018-12-11T20:21:54.991Z,14.00
2018-12-11T20:24:59.294Z,13.43
2018-12-11T20:28:03.512Z,13.10
2018-12-11T20:31:07.715Z,14.87
2018-12-11T20:34:11.730Z,16.03
2018-12-11T20:37:16.231Z,12.20
2018-12-11T20:40:20.613Z,12.30
2018-12-11T20:43:24.831Z,15.00
2018-12-11T20:46:28.864Z,9.83
2018-12-11T20:49:32.899Z,11.63
2018-12-11T20:52:36.987Z,15.20
2018-12-11T20:55:41.332Z,13.03
2018-12-11T20:58:45.406Z,12.67
2018-12-11T21:01:49.862Z,13.70
2018-12-11T21:04:53.959Z,15.53
2018-12-11T21:07:58.703Z,14.80
2018-12-11T21:11:02.919Z,17.23
2018-12-11T21:15:28.590Z,19.30
2018-12-11T21:18:32.834Z,17.00
2018-12-11T21:21:37.377Z,16.63
2018-12-11T21:24:41.479Z,14.13
2018-12-11T21:27:45.858Z,16.13
2018-12-11T21:30:50.678Z,17.90
2018-12-11T21:33:54.699Z,17.27
2018-12-11T21:37:02.606Z,17.10
2018-12-11T21:40:07.888Z,13.83
2018-12-11T21:43:12.939Z,14.93
2018-12-11T21:46:17.114Z,16.17
2018-12-11T21:49:21.203Z,17.40
2018-12-11T21:52:25.223Z,15.90
2018-12-11T21:55:29.253Z,15.13
2018-12-11T21:58:33.266Z,15.93
2018-12-11T22:01:37.297Z,20.33
2018-12-11T22:04:41.319Z,14.03
2018-12-11T22:07:45.343Z,16.77
2018-12-11T22:10:49.448Z,15.10
2018-12-11T22:13:53.475Z,17.43
2018-12-11T22:16:57.522Z,22.60
2018-12-11T22:20:01.530Z,16.23
2018-12-11T22:23:05.570Z,16.67
2018-12-11T22:26:09.602Z,19.67
2018-12-11T22:29:14.154Z,19.57
2018-12-11T22:32:19.321Z,19.37
2018-12-11T22:35:24.158Z,19.70
2018-12-11T22:38:29.050Z,18.90
2018-12-11T22:41:45.756Z,15.60
2018-12-11T22:44:50.539Z,16.60
2018-12-11T22:47:55.095Z,18.50
2018-12-11T22:50:59.235Z,17.17
2018-12-11T22:54:04.202Z,20.30
2018-12-11T22:57:08.228Z,20.50
2018-12-11T23:00:12.599Z,21.63
2018-12-11T23:03:16.620Z,23.60
2018-12-11T23:06:20.743Z,21.40
2018-12-11T23:09:24.775Z,15.33
2018-12-11T23:12:28.799Z,20.30
2018-12-11T23:15:33.044Z,20.17
2018-12-11T23:18:37.084Z,18.90
2018-12-11T23:21:41.113Z,20.07
2018-12-11T23:24:45.442Z,16.27
2018-12-11T23:27:49.474Z,20.33
2018-12-11T23:30:53.486Z,16.40
2018-12-11T23:33:57.514Z,19.43
2018-12-11T23:37:01.556Z,16.83
2018-12-11T23:40:06.122Z,22.00
2018-12-11T23:43:10.162Z,17.77
2018-12-11T23:46:14.179Z,19.30
2018-12-11T23:49:18.194Z,16.27
2018-12-11T23:52:22.215Z,19.27
2018-12-11T23:55:26.251Z,19.03
2018-12-11T23:58:30.337Z,17.73
